This is the latest recevied weather packets stored in our database for station/object KF6ILA. If no packets are shown the sender has not sent any weather packets the latest 10 day(s).
| Time | Temp. | Humidity | Pressure | Rain* | Wind** | Luminosity | Snow |
|---|---|---|---|---|---|---|---|
| 1788136109 | 79° F | 38% | 760.8 mmHg | 0 in | - | 334 W/m² | - |
| 1788135812 | 80° F | 36% | 760.9 mmHg | 0 in | - | 355 W/m² | - |
| 1788135515 | 80° F | 36% | 760.9 mmHg | 0 in | - | 369 W/m² | - |
| 1788135218 | 80° F | 35% | 761 mmHg | 0 in | - | 390 W/m² | - |
| 1788134921 | 80° F | 33% | 760.8 mmHg | 0 in | - | 406 W/m² | - |
| 1788134624 | 80° F | 33% | 760.9 mmHg | 0 in | - | 425 W/m² | - |
| 1788134327 | 80° F | 32% | 760.9 mmHg | 0 in | - | 443 W/m² | - |
| 1788134030 | 81° F | 32% | 761 mmHg | 0 in | - | 466 W/m² | - |
| 1788133733 | 81° F | 31% | 761 mmHg | 0 in | - | 480 W/m² | - |
| 1788133436 | 81° F | 32% | 761.1 mmHg | 0 in | - | 492 W/m² | - |
| 1788133139 | 81° F | 31% | 761.2 mmHg | 0 in | - | 513 W/m² | - |
| 1788132842 | 81° F | 30% | 761.1 mmHg | 0 in | - | 531 W/m² | - |
| 1788132248 | 82° F | 31% | 761.1 mmHg | 0 in | - | 561 W/m² | - |
| 1788131951 | 82° F | 32% | 760.9 mmHg | 0 in | - | 578 W/m² | - |
| 1788131654 | 82° F | 31% | 761 mmHg | 0 in | - | 594 W/m² | - |
| 1788131357 | 82° F | 31% | 761.1 mmHg | 0 in | - | 612 W/m² | - |
| 1788130763 | 83° F | 32% | 761.2 mmHg | 0 in | - | 642 W/m² | - |
| 1788130466 | 83° F | 32% | 761.3 mmHg | 0 in | - | 656 W/m² | - |
| 1788130169 | 83° F | 31% | 761.2 mmHg | 0 in | - | 671 W/m² | - |
| 1788128981 | 83° F | 32% | 761.5 mmHg | 0 in | - | 729 W/m² | - |
| 1788128684 | 83° F | 32% | 761.5 mmHg | 0 in | - | 742 W/m² | - |
| 1788128387 | 84° F | 32% | 761.4 mmHg | 0 in | - | 756 W/m² | - |
| 1788128090 | 84° F | 32% | 761.4 mmHg | 0 in | - | 763 W/m² | - |
| 1788127793 | 84° F | 32% | 761.4 mmHg | 0 in | - | 775 W/m² | - |
| 1788127496 | 85° F | 33% | 761.5 mmHg | 0 in | - | 784 W/m² | - |
* Rain latest hour (hover to see other rain measurements)
** Current wind speed in m/s (hover to see current wind gust speed)